sensor_id;sensor_type;location;lat;lon;timestamp;pressure;altitude;pressure_sealevel;temperature;humidity
13011;BME280;6786;57.632;11.962;2024-03-07T00:00:16;102688.19;;;18.30;39.64
13011;BME280;6786;57.632;11.962;2024-03-07T00:02:46;102620.03;;;17.88;39.67
13011;BME280;6786;57.632;11.962;2024-03-07T00:05:18;102678.75;;;18.23;39.68
13011;BME280;6786;57.632;11.962;2024-03-07T00:07:47;102516.47;;;17.24;39.49
13011;BME280;6786;57.632;11.962;2024-03-07T00:10:16;102695.53;;;18.27;39.69
13011;BME280;6786;57.632;11.962;2024-03-07T00:12:44;102674.69;;;18.16;39.63
13011;BME280;6786;57.632;11.962;2024-03-07T00:15:15;102605.44;;;17.78;39.66
13011;BME280;6786;57.632;11.962;2024-03-07T00:17:44;102690.16;;;18.27;39.65
13011;BME280;6786;57.632;11.962;2024-03-07T00:20:13;102688.34;;;18.27;39.62
13011;BME280;6786;57.632;11.962;2024-03-07T00:22:44;102683.88;;;18.28;39.69
13011;BME280;6786;57.632;11.962;2024-03-07T00:25:12;102689.22;;;18.28;39.54
13011;BME280;6786;57.632;11.962;2024-03-07T00:27:46;102688.34;;;18.27;39.58
13011;BME280;6786;57.632;11.962;2024-03-07T00:30:15;102689.28;;;18.26;39.55
13011;BME280;6786;57.632;11.962;2024-03-07T00:32:46;102692.84;;;18.27;39.64
13011;BME280;6786;57.632;11.962;2024-03-07T00:35:15;102685.75;;;18.26;39.46
13011;BME280;6786;57.632;11.962;2024-03-07T00:37:45;102694.72;;;18.25;39.57
13011;BME280;6786;57.632;11.962;2024-03-07T00:40:13;102692.94;;;18.25;39.52
13011;BME280;6786;57.632;11.962;2024-03-07T00:42:41;102609.88;;;17.62;39.57
13011;BME280;6786;57.632;11.962;2024-03-07T00:45:10;102673.22;;;18.11;39.59
13011;BME280;6786;57.632;11.962;2024-03-07T00:47:38;102698.53;;;18.21;39.57
13011;BME280;6786;57.632;11.962;2024-03-07T00:50:07;102677.78;;;18.09;39.56
13011;BME280;6786;57.632;11.962;2024-03-07T00:52:37;102698.53;;;18.21;39.61
13011;BME280;6786;57.632;11.962;2024-03-07T00:55:08;102693.19;;;18.21;39.53
13011;BME280;6786;57.632;11.962;2024-03-07T00:57:36;102694.03;;;18.21;39.45
13011;BME280;6786;57.632;11.962;2024-03-07T01:00:05;102696.63;;;18.23;39.39
13011;BME280;6786;57.632;11.962;2024-03-07T01:02:39;102692.13;;;18.23;39.50
13011;BME280;6786;57.632;11.962;2024-03-07T01:05:10;102695.16;;;18.17;39.52
13011;BME280;6786;57.632;11.962;2024-03-07T01:07:40;102640.38;;;17.75;39.39
13011;BME280;6786;57.632;11.962;2024-03-07T01:10:12;102696.19;;;18.15;39.40
13011;BME280;6786;57.632;11.962;2024-03-07T01:12:40;102583.38;;;17.57;39.43
13011;BME280;6786;57.632;11.962;2024-03-07T01:15:10;102679.16;;;18.16;39.40
13011;BME280;6786;57.632;11.962;2024-03-07T01:17:39;102560.31;;;17.37;39.33
13011;BME280;6786;57.632;11.962;2024-03-07T01:20:09;102686.28;;;18.17;39.47
13011;BME280;6786;57.632;11.962;2024-03-07T01:22:38;102679.88;;;18.19;39.37
13011;BME280;6786;57.632;11.962;2024-03-07T01:25:07;102687.81;;;18.21;39.35
13011;BME280;6786;57.632;11.962;2024-03-07T01:27:36;102681.41;;;18.08;39.33
13011;BME280;6786;57.632;11.962;2024-03-07T01:30:05;102693.50;;;18.15;39.37
13011;BME280;6786;57.632;11.962;2024-03-07T01:32:35;102648.03;;;17.98;39.48
13011;BME280;6786;57.632;11.962;2024-03-07T01:35:04;102589.41;;;17.60;39.42
13011;BME280;6786;57.632;11.962;2024-03-07T01:37:35;102681.69;;;18.19;39.34
13011;BME280;6786;57.632;11.962;2024-03-07T01:40:03;102689.72;;;18.19;39.43
13011;BME280;6786;57.632;11.962;2024-03-07T01:42:32;102686.09;;;18.20;39.19
13011;BME280;6786;57.632;11.962;2024-03-07T01:45:01;102679.88;;;18.19;39.25
13011;BME280;6786;57.632;11.962;2024-03-07T01:47:30;102679.00;;;18.19;39.40
13011;BME280;6786;57.632;11.962;2024-03-07T01:49:58;102679.09;;;18.17;39.24
13011;BME280;6786;57.632;11.962;2024-03-07T01:52:28;102682.63;;;18.18;39.10
13011;BME280;6786;57.632;11.962;2024-03-07T01:54:56;102682.63;;;18.18;39.34
13011;BME280;6786;57.632;11.962;2024-03-07T01:57:25;102681.69;;;18.19;39.35
13011;BME280;6786;57.632;11.962;2024-03-07T01:59:55;102612.06;;;17.71;39.16
13011;BME280;6786;57.632;11.962;2024-03-07T02:02:26;102684.34;;;18.19;39.30
13011;BME280;6786;57.632;11.962;2024-03-07T02:04:54;102679.00;;;18.19;39.27
13011;BME280;6786;57.632;11.962;2024-03-07T02:07:22;102675.41;;;18.20;39.23
13011;BME280;6786;57.632;11.962;2024-03-07T02:09:59;102675.41;;;18.20;39.02
13011;BME280;6786;57.632;11.962;2024-03-07T02:12:27;102680.91;;;18.17;39.32
13011;BME280;6786;57.632;11.962;2024-03-07T02:14:56;102679.00;;;18.19;39.29
13011;BME280;6786;57.632;11.962;2024-03-07T02:17:26;102679.00;;;18.19;39.27
13011;BME280;6786;57.632;11.962;2024-03-07T02:19:55;102661.72;;;18.09;39.36
13011;BME280;6786;57.632;11.962;2024-03-07T02:22:24;102662.44;;;18.12;39.30
13011;BME280;6786;57.632;11.962;2024-03-07T02:24:53;102677.28;;;18.18;39.02
13011;BME280;6786;57.632;11.962;2024-03-07T02:27:21;102668.28;;;18.19;39.17
13011;BME280;6786;57.632;11.962;2024-03-07T02:29:49;102670.22;;;18.17;39.09
13011;BME280;6786;57.632;11.962;2024-03-07T02:32:18;102673.66;;;18.19;39.24
13011;BME280;6786;57.632;11.962;2024-03-07T02:34:46;102647.19;;;17.97;39.09
13011;BME280;6786;57.632;11.962;2024-03-07T02:37:14;102668.28;;;18.19;39.15
13011;BME280;6786;57.632;11.962;2024-03-07T02:39:44;102640.81;;;18.00;39.04
13011;BME280;6786;57.632;11.962;2024-03-07T02:42:12;102670.03;;;18.20;39.10
13011;BME280;6786;57.632;11.962;2024-03-07T02:44:40;102670.03;;;18.20;39.19
13011;BME280;6786;57.632;11.962;2024-03-07T02:47:09;102668.28;;;18.19;39.13
13011;BME280;6786;57.632;11.962;2024-03-07T02:49:37;102666.41;;;18.21;39.16
13011;BME280;6786;57.632;11.962;2024-03-07T02:52:05;102662.78;;;18.22;38.94
13011;BME280;6786;57.632;11.962;2024-03-07T02:54:34;102661.91;;;18.21;38.98
13011;BME280;6786;57.632;11.962;2024-03-07T02:57:04;102666.41;;;18.21;39.08
13011;BME280;6786;57.632;11.962;2024-03-07T02:59:32;102661.91;;;18.21;38.96
13011;BME280;6786;57.632;11.962;2024-03-07T03:02:01;102662.78;;;18.22;38.98
13011;BME280;6786;57.632;11.962;2024-03-07T03:04:29;102636.91;;;18.05;39.00
13011;BME280;6786;57.632;11.962;2024-03-07T03:06:57;102650.53;;;18.18;39.03
13011;BME280;6786;57.632;11.962;2024-03-07T03:09:25;102555.59;;;17.59;38.85
13011;BME280;6786;57.632;11.962;2024-03-07T03:11:54;102653.03;;;18.21;38.96
13011;BME280;6786;57.632;11.962;2024-03-07T03:14:24;102647.94;;;18.16;38.94
13011;BME280;6786;57.632;11.962;2024-03-07T03:16:52;102655.72;;;18.21;38.86
13011;BME280;6786;57.632;11.962;2024-03-07T03:19:23;102642.81;;;18.12;38.90
13011;BME280;6786;57.632;11.962;2024-03-07T03:21:53;102657.44;;;18.22;38.87
13011;BME280;6786;57.632;11.962;2024-03-07T03:24:22;102654.00;;;18.20;38.84
13011;BME280;6786;57.632;11.962;2024-03-07T03:26:50;102654.00;;;18.20;38.89
13011;BME280;6786;57.632;11.962;2024-03-07T03:29:19;102661.16;;;18.19;38.90
13011;BME280;6786;57.632;11.962;2024-03-07T03:31:48;102557.00;;;17.67;38.96
13011;BME280;6786;57.632;11.962;2024-03-07T03:34:16;102652.06;;;18.22;38.90
13011;BME280;6786;57.632;11.962;2024-03-07T03:36:45;102650.19;;;18.24;38.76
13011;BME280;6786;57.632;11.962;2024-03-07T03:39:13;102652.88;;;18.24;38.75
13011;BME280;6786;57.632;11.962;2024-03-07T03:41:42;102660.91;;;18.24;39.00
13011;BME280;6786;57.632;11.962;2024-03-07T03:44:10;102649.22;;;18.25;38.69
13011;BME280;6786;57.632;11.962;2024-03-07T03:46:39;102648.28;;;18.26;38.61
13011;BME280;6786;57.632;11.962;2024-03-07T03:49:09;102644.84;;;18.24;38.72
13011;BME280;6786;57.632;11.962;2024-03-07T03:51:37;102643.88;;;18.25;38.64
13011;BME280;6786;57.632;11.962;2024-03-07T03:54:06;102625.81;;;18.13;38.57
13011;BME280;6786;57.632;11.962;2024-03-07T03:56:34;102642.41;;;18.19;38.68
13011;BME280;6786;57.632;11.962;2024-03-07T03:59:03;102646.56;;;18.25;38.74
13011;BME280;6786;57.632;11.962;2024-03-07T04:01:31;102651.91;;;18.25;38.78
13011;BME280;6786;57.632;11.962;2024-03-07T04:04:00;102639.81;;;18.33;38.48
13011;BME280;6786;57.632;11.962;2024-03-07T04:06:29;102647.78;;;18.35;38.47
13011;BME280;6786;57.632;11.962;2024-03-07T04:08:57;102552.19;;;17.73;38.53
13011;BME280;6786;57.632;11.962;2024-03-07T04:11:26;102582.09;;;17.97;38.62
13011;BME280;6786;57.632;11.962;2024-03-07T04:13:54;102564.94;;;17.68;38.71
13011;BME280;6786;57.632;11.962;2024-03-07T04:16:22;102654.75;;;18.22;38.73
13011;BME280;6786;57.632;11.962;2024-03-07T04:18:50;102645.97;;;18.20;38.67
13011;BME280;6786;57.632;11.962;2024-03-07T04:21:19;102643.88;;;18.25;38.58
13011;BME280;6786;57.632;11.962;2024-03-07T04:23:49;102642.91;;;18.26;38.60
13011;BME280;6786;57.632;11.962;2024-03-07T04:26:17;102564.28;;;17.80;38.59
13011;BME280;6786;57.632;11.962;2024-03-07T04:28:46;102544.41;;;17.69;38.63
13011;BME280;6786;57.632;11.962;2024-03-07T04:31:15;102586.06;;;17.90;38.55
13011;BME280;6786;57.632;11.962;2024-03-07T04:33:43;102643.09;;;18.23;38.44
13011;BME280;6786;57.632;11.962;2024-03-07T04:36:13;102635.34;;;18.18;38.60
13011;BME280;6786;57.632;11.962;2024-03-07T04:38:41;102643.09;;;18.23;38.66
13011;BME280;6786;57.632;11.962;2024-03-07T04:41:13;102644.03;;;18.22;38.68
13011;BME280;6786;57.632;11.962;2024-03-07T04:43:43;102646.72;;;18.22;38.59
13011;BME280;6786;57.632;11.962;2024-03-07T04:46:11;102644.03;;;18.22;38.54
13011;BME280;6786;57.632;11.962;2024-03-07T04:48:39;102570.13;;;17.71;38.42
13011;BME280;6786;57.632;11.962;2024-03-07T04:51:09;102634.28;;;18.21;38.53
13011;BME280;6786;57.632;11.962;2024-03-07T04:53:37;102646.72;;;18.22;38.55
13011;BME280;6786;57.632;11.962;2024-03-07T04:56:09;102562.72;;;17.76;38.41
13011;BME280;6786;57.632;11.962;2024-03-07T04:58:38;102553.41;;;17.68;38.59
13011;BME280;6786;57.632;11.962;2024-03-07T05:01:07;102569.28;;;17.71;38.47
13011;BME280;6786;57.632;11.962;2024-03-07T05:03:35;102636.88;;;18.22;38.56
13011;BME280;6786;57.632;11.962;2024-03-07T05:06:03;102640.41;;;18.23;38.54
13011;BME280;6786;57.632;11.962;2024-03-07T05:08:32;102646.63;;;18.23;38.51
13011;BME280;6786;57.632;11.962;2024-03-07T05:11:00;102639.47;;;18.24;38.48
13011;BME280;6786;57.632;11.962;2024-03-07T05:13:28;102641.38;;;18.22;38.46
13011;BME280;6786;57.632;11.962;2024-03-07T05:15:59;102643.28;;;18.20;38.58
13011;BME280;6786;57.632;11.962;2024-03-07T05:18:27;102562.91;;;17.73;38.39
13011;BME280;6786;57.632;11.962;2024-03-07T05:20:56;102643.28;;;18.20;38.44
13011;BME280;6786;57.632;11.962;2024-03-07T05:23:35;102521.59;;;17.46;38.58
13011;BME280;6786;57.632;11.962;2024-03-07T05:26:04;102558.38;;;17.74;38.44
13011;BME280;6786;57.632;11.962;2024-03-07T05:28:33;102642.25;;;18.22;38.51
13011;BME280;6786;57.632;11.962;2024-03-07T05:31:03;102634.13;;;18.24;38.49
13011;BME280;6786;57.632;11.962;2024-03-07T05:33:32;102641.19;;;18.25;38.53
13011;BME280;6786;57.632;11.962;2024-03-07T05:36:00;102646.56;;;18.25;38.48
13011;BME280;6786;57.632;11.962;2024-03-07T05:38:41;102647.50;;;18.24;38.40
13011;BME280;6786;57.632;11.962;2024-03-07T05:41:11;102648.44;;;18.23;38.36
13011;BME280;6786;57.632;11.962;2024-03-07T05:43:39;102633.06;;;18.11;38.71
13011;BME280;6786;57.632;11.962;2024-03-07T05:46:09;102532.75;;;17.54;38.64
13011;BME280;6786;57.632;11.962;2024-03-07T05:48:37;102552.13;;;17.57;38.72
13011;BME280;6786;57.632;11.962;2024-03-07T05:51:06;102651.56;;;18.15;38.63
13011;BME280;6786;57.632;11.962;2024-03-07T05:53:34;102648.97;;;18.14;38.71
13011;BME280;6786;57.632;11.962;2024-03-07T05:56:04;102649.03;;;18.12;38.82
13011;BME280;6786;57.632;11.962;2024-03-07T05:58:32;102587.22;;;17.69;38.81
13011;BME280;6786;57.632;11.962;2024-03-07T06:01:01;102644.09;;;18.05;38.71
13011;BME280;6786;57.632;11.962;2024-03-07T06:03:30;102626.47;;;18.01;38.67
13011;BME280;6786;57.632;11.962;2024-03-07T06:05:59;102653.19;;;18.18;38.76
13011;BME280;6786;57.632;11.962;2024-03-07T06:08:27;102655.88;;;18.18;38.76
13011;BME280;6786;57.632;11.962;2024-03-07T06:10:55;102648.97;;;18.14;38.62
13011;BME280;6786;57.632;11.962;2024-03-07T06:13:24;102629.94;;;18.03;38.57
13011;BME280;6786;57.632;11.962;2024-03-07T06:15:53;102618.69;;;17.96;38.56
13011;BME280;6786;57.632;11.962;2024-03-07T06:18:21;102662.94;;;18.19;38.62
13011;BME280;6786;57.632;11.962;2024-03-07T06:20:51;102653.13;;;18.19;38.57
13011;BME280;6786;57.632;11.962;2024-03-07T06:23:19;102590.16;;;17.80;38.72
13011;BME280;6786;57.632;11.962;2024-03-07T06:25:48;102656.75;;;18.18;38.58
13011;BME280;6786;57.632;11.962;2024-03-07T06:28:18;102662.94;;;18.19;38.60
13011;BME280;6786;57.632;11.962;2024-03-07T06:30:46;102655.88;;;18.18;38.58
13011;BME280;6786;57.632;11.962;2024-03-07T06:33:15;102597.25;;;17.81;38.53
13011;BME280;6786;57.632;11.962;2024-03-07T06:35:48;102661.22;;;18.18;38.51
13011;BME280;6786;57.632;11.962;2024-03-07T06:38:20;102673.66;;;18.19;38.61
13011;BME280;6786;57.632;11.962;2024-03-07T06:40:48;102662.94;;;18.19;38.52
13011;BME280;6786;57.632;11.962;2024-03-07T06:43:16;102663.81;;;18.19;38.44
13011;BME280;6786;57.632;11.962;2024-03-07T06:45:45;102670.03;;;18.20;38.49
13011;BME280;6786;57.632;11.962;2024-03-07T06:48:13;102667.38;;;18.20;38.43
13011;BME280;6786;57.632;11.962;2024-03-07T06:50:41;102663.81;;;18.19;38.54
13011;BME280;6786;57.632;11.962;2024-03-07T06:53:11;102671.84;;;18.19;38.45
13011;BME280;6786;57.632;11.962;2024-03-07T06:55:41;102665.63;;;18.19;38.48
13011;BME280;6786;57.632;11.962;2024-03-07T06:58:09;102661.22;;;18.18;38.57
13011;BME280;6786;57.632;11.962;2024-03-07T07:00:37;102649.38;;;18.06;38.38
13011;BME280;6786;57.632;11.962;2024-03-07T07:03:07;102662.94;;;18.19;38.56
13011;BME280;6786;57.632;11.962;2024-03-07T07:05:35;102664.69;;;18.20;38.51
13011;BME280;6786;57.632;11.962;2024-03-07T07:08:05;102662.94;;;18.19;38.52
13011;BME280;6786;57.632;11.962;2024-03-07T07:10:34;102661.22;;;18.18;38.48
13011;BME280;6786;57.632;11.962;2024-03-07T07:13:05;102662.34;;;18.14;38.40
13011;BME280;6786;57.632;11.962;2024-03-07T07:15:33;102587.38;;;17.66;38.41
13011;BME280;6786;57.632;11.962;2024-03-07T07:18:01;102668.13;;;18.22;38.34
13011;BME280;6786;57.632;11.962;2024-03-07T07:20:30;102662.94;;;18.19;38.34
13011;BME280;6786;57.632;11.962;2024-03-07T07:23:01;102677.13;;;18.21;38.39
13011;BME280;6786;57.632;11.962;2024-03-07T07:25:31;102663.81;;;18.19;38.37
13011;BME280;6786;57.632;11.962;2024-03-07T07:27:59;102658.47;;;18.19;38.43
13011;BME280;6786;57.632;11.962;2024-03-07T07:30:29;102655.72;;;18.21;38.40
13011;BME280;6786;57.632;11.962;2024-03-07T07:32:58;102614.03;;;18.00;38.44
13011;BME280;6786;57.632;11.962;2024-03-07T07:35:26;102655.72;;;18.21;38.47
13011;BME280;6786;57.632;11.962;2024-03-07T07:37:55;102650.34;;;18.21;38.40
13011;BME280;6786;57.632;11.962;2024-03-07T07:40:24;102654.16;;;18.17;38.36
13011;BME280;6786;57.632;11.962;2024-03-07T07:42:54;102656.53;;;18.21;38.21
13011;BME280;6786;57.632;11.962;2024-03-07T07:45:23;102658.38;;;18.21;38.28
13011;BME280;6786;57.632;11.962;2024-03-07T07:47:53;102655.72;;;18.21;38.26
13011;BME280;6786;57.632;11.962;2024-03-07T07:50:23;102652.06;;;18.22;38.28
13011;BME280;6786;57.632;11.962;2024-03-07T07:52:53;102652.06;;;18.22;38.27
13011;BME280;6786;57.632;11.962;2024-03-07T07:55:22;102589.06;;;17.84;38.17
13011;BME280;6786;57.632;11.962;2024-03-07T07:57:53;102658.38;;;18.21;38.32
13011;BME280;6786;57.632;11.962;2024-03-07T08:00:23;102643.44;;;18.17;38.38
13011;BME280;6786;57.632;11.962;2024-03-07T08:02:54;102649.47;;;18.20;38.28
13011;BME280;6786;57.632;11.962;2024-03-07T08:05:24;102631.66;;;18.04;38.42
13011;BME280;6786;57.632;11.962;2024-03-07T08:07:53;102659.34;;;18.20;38.46
13011;BME280;6786;57.632;11.962;2024-03-07T08:10:24;102652.25;;;18.19;38.40
13011;BME280;6786;57.632;11.962;2024-03-07T08:12:55;102652.56;;;18.13;38.40
13011;BME280;6786;57.632;11.962;2024-03-07T08:15:25;102650.84;;;18.12;38.38
13011;BME280;6786;57.632;11.962;2024-03-07T08:17:57;102656.19;;;18.12;38.40
13011;BME280;6786;57.632;11.962;2024-03-07T08:20:26;102645.66;;;18.09;38.47
13011;BME280;6786;57.632;11.962;2024-03-07T08:22:56;102645.50;;;18.12;38.48
13011;BME280;6786;57.632;11.962;2024-03-07T08:25:25;102645.50;;;18.12;38.38
13011;BME280;6786;57.632;11.962;2024-03-07T08:27:55;102651.56;;;18.15;38.45
13011;BME280;6786;57.632;11.962;2024-03-07T08:30:25;102560.78;;;17.63;38.35
13011;BME280;6786;57.632;11.962;2024-03-07T08:32:56;102643.78;;;18.11;38.44
13011;BME280;6786;57.632;11.962;2024-03-07T08:35:25;102648.97;;;18.14;38.47
13011;BME280;6786;57.632;11.962;2024-03-07T08:37:54;102649.81;;;18.14;38.37
13011;BME280;6786;57.632;11.962;2024-03-07T08:40:26;102654.16;;;18.17;38.53
13011;BME280;6786;57.632;11.962;2024-03-07T08:42:59;102648.97;;;18.14;38.28
13011;BME280;6786;57.632;11.962;2024-03-07T08:45:28;102648.88;;;18.15;38.27
13011;BME280;6786;57.632;11.962;2024-03-07T08:48:03;102640.31;;;18.09;38.49
13011;BME280;6786;57.632;11.962;2024-03-07T08:50:33;102643.63;;;18.14;38.27
13011;BME280;6786;57.632;11.962;2024-03-07T08:53:02;102641.84;;;18.13;38.26
13011;BME280;6786;57.632;11.962;2024-03-07T08:55:31;102636.34;;;18.16;38.47
13011;BME280;6786;57.632;11.962;2024-03-07T08:57:59;102644.38;;;18.16;38.42
13011;BME280;6786;57.632;11.962;2024-03-07T09:00:28;102647.22;;;18.13;38.38
13011;BME280;6786;57.632;11.962;2024-03-07T09:02:57;102639.44;;;18.08;38.26
13011;BME280;6786;57.632;11.962;2024-03-07T09:05:30;102630.81;;;18.19;38.33
13011;BME280;6786;57.632;11.962;2024-03-07T09:08:01;102637.94;;;18.20;38.35
13011;BME280;6786;57.632;11.962;2024-03-07T09:10:30;102626.34;;;18.19;38.20
13011;BME280;6786;57.632;11.962;2024-03-07T09:12:58;102632.56;;;18.20;38.17
13011;BME280;6786;57.632;11.962;2024-03-07T09:15:26;102632.56;;;18.20;38.35
13011;BME280;6786;57.632;11.962;2024-03-07T09:17:55;102619.38;;;18.17;38.18
13011;BME280;6786;57.632;11.962;2024-03-07T09:20:25;102627.22;;;18.20;38.44
13011;BME280;6786;57.632;11.962;2024-03-07T09:22:55;102626.34;;;18.19;38.44
13011;BME280;6786;57.632;11.962;2024-03-07T09:25:23;102634.28;;;18.21;38.26
13011;BME280;6786;57.632;11.962;2024-03-07T09:27:52;102624.72;;;18.17;38.21
13011;BME280;6786;57.632;11.962;2024-03-07T09:30:23;102552.78;;;17.78;38.33
13011;BME280;6786;57.632;11.962;2024-03-07T09:32:54;102624.53;;;18.20;38.26
13011;BME280;6786;57.632;11.962;2024-03-07T09:35:23;102521.97;;;17.55;38.21
13011;BME280;6786;57.632;11.962;2024-03-07T09:37:52;102614.94;;;18.16;38.43
13011;BME280;6786;57.632;11.962;2024-03-07T09:40:23;102518.34;;;17.56;38.38
13011;BME280;6786;57.632;11.962;2024-03-07T09:42:54;102625.47;;;18.19;38.34
13011;BME280;6786;57.632;11.962;2024-03-07T09:45:29;102626.34;;;18.19;38.27
13011;BME280;6786;57.632;11.962;2024-03-07T09:47:58;102616.53;;;18.20;38.35
13011;BME280;6786;57.632;11.962;2024-03-07T09:50:29;102616.53;;;18.20;38.46
13011;BME280;6786;57.632;11.962;2024-03-07T09:52:58;102620.13;;;18.19;38.31
13011;BME280;6786;57.632;11.962;2024-03-07T09:55:29;102596.78;;;18.05;38.28
13011;BME280;6786;57.632;11.962;2024-03-07T09:57:58;102616.53;;;18.20;38.23
13011;BME280;6786;57.632;11.962;2024-03-07T10:00:28;102609.41;;;18.19;38.24
13011;BME280;6786;57.632;11.962;2024-03-07T10:02:59;102617.34;;;18.20;38.36
13011;BME280;6786;57.632;11.962;2024-03-07T10:05:30;102521.47;;;17.65;38.44
13011;BME280;6786;57.632;11.962;2024-03-07T10:08:00;102611.16;;;18.20;38.32
13011;BME280;6786;57.632;11.962;2024-03-07T10:10:30;102605.81;;;18.20;38.32
13011;BME280;6786;57.632;11.962;2024-03-07T10:12:59;102609.59;;;18.16;38.43
13011;BME280;6786;57.632;11.962;2024-03-07T10:15:28;102469.44;;;17.37;38.23
13011;BME280;6786;57.632;11.962;2024-03-07T10:17:57;102608.66;;;18.17;38.28
13011;BME280;6786;57.632;11.962;2024-03-07T10:20:26;102614.75;;;18.19;38.39
13011;BME280;6786;57.632;11.962;2024-03-07T10:22:55;102611.34;;;18.17;38.37
13011;BME280;6786;57.632;11.962;2024-03-07T10:25:24;102614.75;;;18.19;38.45
13011;BME280;6786;57.632;11.962;2024-03-07T10:27:57;102608.56;;;18.18;38.30
13011;BME280;6786;57.632;11.962;2024-03-07T10:30:26;102518.34;;;17.56;38.17
13011;BME280;6786;57.632;11.962;2024-03-07T10:32:57;102586.97;;;18.06;38.47
13011;BME280;6786;57.632;11.962;2024-03-07T10:35:28;102602.25;;;18.19;38.40
13011;BME280;6786;57.632;11.962;2024-03-07T10:37:59;102600.47;;;18.20;38.48
13011;BME280;6786;57.632;11.962;2024-03-07T10:40:28;102589.75;;;18.20;38.39
13011;BME280;6786;57.632;11.962;2024-03-07T10:42:59;102512.50;;;17.66;38.35
13011;BME280;6786;57.632;11.962;2024-03-07T10:45:30;102535.09;;;17.76;38.40
13011;BME280;6786;57.632;11.962;2024-03-07T10:48:03;102603.13;;;18.20;38.42
13011;BME280;6786;57.632;11.962;2024-03-07T10:50:43;102588.25;;;18.14;38.30
13011;BME280;6786;57.632;11.962;2024-03-07T10:53:19;102584.56;;;18.17;38.48
13011;BME280;6786;57.632;11.962;2024-03-07T10:56:06;102589.75;;;18.20;38.19
13011;BME280;6786;57.632;11.962;2024-03-07T10:58:49;102583.53;;;18.19;38.34
13011;BME280;6786;57.632;11.962;2024-03-07T11:01:20;102453.41;;;17.37;38.49
13011;BME280;6786;57.632;11.962;2024-03-07T11:03:51;102579.03;;;18.20;38.38
13011;BME280;6786;57.632;11.962;2024-03-07T11:06:25;102576.38;;;18.20;38.30
13011;BME280;6786;57.632;11.962;2024-03-07T11:08:53;102566.59;;;18.19;38.32
13011;BME280;6786;57.632;11.962;2024-03-07T11:11:23;102570.91;;;18.21;38.40
13011;BME280;6786;57.632;11.962;2024-03-07T11:13:53;102501.13;;;17.78;38.41
13011;BME280;6786;57.632;11.962;2024-03-07T11:16:25;102557.63;;;18.20;38.35
13011;BME280;6786;57.632;11.962;2024-03-07T11:22:06;102552.63;;;18.14;38.33
13011;BME280;6786;57.632;11.962;2024-03-07T11:24:43;102557.63;;;18.20;38.40
13011;BME280;6786;57.632;11.962;2024-03-07T11:27:12;102411.16;;;17.28;38.34
13011;BME280;6786;57.632;11.962;2024-03-07T11:29:49;102541.75;;;18.17;38.22
13011;BME280;6786;57.632;11.962;2024-03-07T11:32:21;102553.13;;;18.20;38.26
13011;BME280;6786;57.632;11.962;2024-03-07T11:34:53;102405.22;;;17.39;38.54
13011;BME280;6786;57.632;11.962;2024-03-07T11:37:38;102557.44;;;18.23;38.23
13011;BME280;6786;57.632;11.962;2024-03-07T11:40:11;102545.00;;;18.22;38.36
13011;BME280;6786;57.632;11.962;2024-03-07T11:42:46;102541.38;;;18.23;38.36
13011;BME280;6786;57.632;11.962;2024-03-07T11:45:18;102539.66;;;18.22;38.43
13011;BME280;6786;57.632;11.962;2024-03-07T11:47:54;102537.94;;;18.21;38.49
13011;BME280;6786;57.632;11.962;2024-03-07T11:50:27;102540.63;;;18.21;38.48
13011;BME280;6786;57.632;11.962;2024-03-07T11:52:56;102537.94;;;18.21;38.47
13011;BME280;6786;57.632;11.962;2024-03-07T11:55:24;102529.91;;;18.21;38.62
13011;BME280;6786;57.632;11.962;2024-03-07T11:57:55;102465.06;;;17.85;38.41
13011;BME280;6786;57.632;11.962;2024-03-07T12:00:25;102503.66;;;18.12;38.51
13011;BME280;6786;57.632;11.962;2024-03-07T12:03:01;102514.81;;;18.20;38.54
13011;BME280;6786;57.632;11.962;2024-03-07T12:05:32;102520.16;;;18.20;38.46
13011;BME280;6786;57.632;11.962;2024-03-07T12:08:04;102483.91;;;17.99;38.49
13011;BME280;6786;57.632;11.962;2024-03-07T12:10:33;102514.81;;;18.20;38.59
13011;BME280;6786;57.632;11.962;2024-03-07T12:13:03;102511.19;;;18.21;38.54
13011;BME280;6786;57.632;11.962;2024-03-07T12:15:33;102512.03;;;18.21;38.46
13011;BME280;6786;57.632;11.962;2024-03-07T12:18:02;102511.19;;;18.21;38.50
13011;BME280;6786;57.632;11.962;2024-03-07T12:20:36;102381.69;;;17.45;38.60
13011;BME280;6786;57.632;11.962;2024-03-07T12:23:05;102499.59;;;18.20;38.46
13011;BME280;6786;57.632;11.962;2024-03-07T12:25:35;102500.47;;;18.21;38.47
13011;BME280;6786;57.632;11.962;2024-03-07T12:28:05;102495.13;;;18.21;38.53
13011;BME280;6786;57.632;11.962;2024-03-07T12:30:49;102489.75;;;18.21;38.45
13011;BME280;6786;57.632;11.962;2024-03-07T12:33:18;102499.59;;;18.20;38.54
13011;BME280;6786;57.632;11.962;2024-03-07T12:35:48;102494.16;;;18.22;38.53
13011;BME280;6786;57.632;11.962;2024-03-07T12:38:19;102488.22;;;18.17;38.53
13011;BME280;6786;57.632;11.962;2024-03-07T12:41:02;102479.94;;;18.06;38.51
13011;BME280;6786;57.632;11.962;2024-03-07T12:43:33;102493.66;;;18.15;38.50
13011;BME280;6786;57.632;11.962;2024-03-07T12:46:05;102402.06;;;17.63;38.46
13011;BME280;6786;57.632;11.962;2024-03-07T12:48:35;102493.41;;;18.20;38.53
13011;BME280;6786;57.632;11.962;2024-03-07T12:51:06;102414.50;;;17.65;38.71
13011;BME280;6786;57.632;11.962;2024-03-07T12:53:34;102486.13;;;18.22;38.59
13011;BME280;6786;57.632;11.962;2024-03-07T12:56:03;102504.09;;;18.20;38.64
13011;BME280;6786;57.632;11.962;2024-03-07T12:58:31;102488.06;;;18.20;38.54
13011;BME280;6786;57.632;11.962;2024-03-07T13:01:00;102480.78;;;18.22;38.58
13011;BME280;6786;57.632;11.962;2024-03-07T13:03:30;102480.94;;;18.19;38.50
13011;BME280;6786;57.632;11.962;2024-03-07T13:05:58;102479.06;;;18.21;38.60